sensor_id;sensor_type;location;lat;lon;timestamp;pressure;altitude;pressure_sealevel;temperature;humidity
8294;BME280;4185;41.506;24.938;2023-06-14T00:02:14;93298.50;;;15.29;93.83
8294;BME280;4185;41.506;24.938;2023-06-14T00:04:41;93290.13;;;15.21;93.33
8294;BME280;4185;41.506;24.938;2023-06-14T00:07:08;93310.09;;;15.35;93.73
8294;BME280;4185;41.506;24.938;2023-06-14T00:09:35;93308.03;;;15.41;93.44
8294;BME280;4185;41.506;24.938;2023-06-14T00:12:04;93304.91;;;15.50;93.24
8294;BME280;4185;41.506;24.938;2023-06-14T00:14:31;93299.66;;;15.52;93.08
8294;BME280;4185;41.506;24.938;2023-06-14T00:16:58;93302.69;;;15.48;92.87
8294;BME280;4185;41.506;24.938;2023-06-14T00:19:25;93301.09;;;15.40;93.35
8294;BME280;4185;41.506;24.938;2023-06-14T00:21:51;93305.13;;;15.33;94.11
8294;BME280;4185;41.506;24.938;2023-06-14T00:24:18;93298.28;;;15.27;94.60
8294;BME280;4185;41.506;24.938;2023-06-14T00:26:46;93292.13;;;15.21;95.07
8294;BME280;4185;41.506;24.938;2023-06-14T00:29:15;93296.94;;;15.15;95.92
8294;BME280;4185;41.506;24.938;2023-06-14T00:31:42;93300.50;;;15.10;95.44
8294;BME280;4185;41.506;24.938;2023-06-14T00:34:08;93286.91;;;15.04;95.17
8294;BME280;4185;41.506;24.938;2023-06-14T00:36:35;93298.44;;;14.97;94.47
8294;BME280;4185;41.506;24.938;2023-06-14T00:39:02;93298.81;;;14.88;94.74
8294;BME280;4185;41.506;24.938;2023-06-14T00:41:29;93293.13;;;14.86;95.13
8294;BME280;4185;41.506;24.938;2023-06-14T00:43:55;93283.22;;;14.83;95.95
8294;BME280;4185;41.506;24.938;2023-06-14T00:46:24;93283.13;;;14.89;95.99
8294;BME280;4185;41.506;24.938;2023-06-14T00:48:51;93278.19;;;14.87;96.04
8294;BME280;4185;41.506;24.938;2023-06-14T00:51:17;93278.94;;;14.88;96.17
8294;BME280;4185;41.506;24.938;2023-06-14T00:53:45;93274.94;;;14.89;96.13
8294;BME280;4185;41.506;24.938;2023-06-14T00:56:13;93268.94;;;14.90;96.44
8294;BME280;4185;41.506;24.938;2023-06-14T00:58:40;93265.50;;;14.90;96.48
8294;BME280;4185;41.506;24.938;2023-06-14T01:01:08;93263.41;;;14.96;96.27
8294;BME280;4185;41.506;24.938;2023-06-14T01:03:36;93267.63;;;14.97;97.00
8294;BME280;4185;41.506;24.938;2023-06-14T01:06:13;93265.91;;;14.94;97.07
8294;BME280;4185;41.506;24.938;2023-06-14T01:08:47;93262.34;;;14.99;96.62
8294;BME280;4185;41.506;24.938;2023-06-14T01:11:22;93262.59;;;15.01;97.12
8294;BME280;4185;41.506;24.938;2023-06-14T01:13:51;93257.09;;;15.01;96.84
8294;BME280;4185;41.506;24.938;2023-06-14T01:16:19;93261.63;;;14.98;97.19
8294;BME280;4185;41.506;24.938;2023-06-14T01:18:48;93264.97;;;14.91;98.05
8294;BME280;4185;41.506;24.938;2023-06-14T01:21:21;93257.81;;;14.88;98.54
8294;BME280;4185;41.506;24.938;2023-06-14T01:23:49;93251.13;;;14.84;99.07
8294;BME280;4185;41.506;24.938;2023-06-14T01:26:19;93252.94;;;14.81;98.98
8294;BME280;4185;41.506;24.938;2023-06-14T01:28:46;93254.16;;;14.80;98.96
8294;BME280;4185;41.506;24.938;2023-06-14T01:31:17;93248.28;;;14.76;99.10
8294;BME280;4185;41.506;24.938;2023-06-14T01:33:44;93252.78;;;14.74;99.21
8294;BME280;4185;41.506;24.938;2023-06-14T01:36:12;93247.31;;;14.74;98.96
8294;BME280;4185;41.506;24.938;2023-06-14T01:38:40;93258.00;;;14.72;97.68
8294;BME280;4185;41.506;24.938;2023-06-14T01:41:10;93253.81;;;14.71;97.88
8294;BME280;4185;41.506;24.938;2023-06-14T01:43:38;93249.28;;;14.73;97.54
8294;BME280;4185;41.506;24.938;2023-06-14T01:46:06;93266.66;;;14.76;97.60
8294;BME280;4185;41.506;24.938;2023-06-14T01:48:34;93262.00;;;14.71;97.72
8294;BME280;4185;41.506;24.938;2023-06-14T01:51:01;93257.34;;;14.65;98.53
8294;BME280;4185;41.506;24.938;2023-06-14T01:53:28;93255.28;;;14.53;99.65
8294;BME280;4185;41.506;24.938;2023-06-14T01:55:55;93255.88;;;14.46;100.00
8294;BME280;4185;41.506;24.938;2023-06-14T01:58:23;93261.03;;;14.49;100.00
8294;BME280;4185;41.506;24.938;2023-06-14T02:00:51;93263.66;;;14.60;99.88
8294;BME280;4185;41.506;24.938;2023-06-14T02:03:20;93264.16;;;14.59;99.19
8294;BME280;4185;41.506;24.938;2023-06-14T02:05:48;93254.28;;;14.56;99.82
8294;BME280;4185;41.506;24.938;2023-06-14T02:08:15;93257.72;;;14.56;100.00
8294;BME280;4185;41.506;24.938;2023-06-14T02:10:42;93262.97;;;14.54;100.00
8294;BME280;4185;41.506;24.938;2023-06-14T02:13:09;93258.00;;;14.53;100.00
8294;BME280;4185;41.506;24.938;2023-06-14T02:15:37;93268.13;;;14.58;100.00
8294;BME280;4185;41.506;24.938;2023-06-14T02:18:04;93267.41;;;14.57;100.00
8294;BME280;4185;41.506;24.938;2023-06-14T02:20:31;93274.63;;;14.55;100.00
8294;BME280;4185;41.506;24.938;2023-06-14T02:22:58;93268.94;;;14.53;100.00
8294;BME280;4185;41.506;24.938;2023-06-14T02:25:24;93268.28;;;14.47;100.00
8294;BME280;4185;41.506;24.938;2023-06-14T02:27:53;93276.25;;;14.45;100.00
8294;BME280;4185;41.506;24.938;2023-06-14T02:30:20;93270.03;;;14.44;100.00
8294;BME280;4185;41.506;24.938;2023-06-14T02:32:48;93272.56;;;14.42;100.00
8294;BME280;4185;41.506;24.938;2023-06-14T02:35:16;93267.47;;;14.33;100.00
8294;BME280;4185;41.506;24.938;2023-06-14T02:37:43;93273.50;;;14.26;100.00
8294;BME280;4185;41.506;24.938;2023-06-14T02:40:10;93277.22;;;14.29;100.00
8294;BME280;4185;41.506;24.938;2023-06-14T02:42:37;93283.34;;;14.35;100.00
8294;BME280;4185;41.506;24.938;2023-06-14T02:45:05;93286.22;;;14.42;100.00
8294;BME280;4185;41.506;24.938;2023-06-14T02:47:32;93275.75;;;14.46;100.00
8294;BME280;4185;41.506;24.938;2023-06-14T02:50:00;93288.88;;;14.48;100.00
8294;BME280;4185;41.506;24.938;2023-06-14T02:52:27;93292.72;;;14.58;100.00
8294;BME280;4185;41.506;24.938;2023-06-14T02:54:54;93295.63;;;14.65;100.00
8294;BME280;4185;41.506;24.938;2023-06-14T02:57:21;93286.41;;;14.68;100.00
8294;BME280;4185;41.506;24.938;2023-06-14T02:59:48;93293.13;;;14.68;100.00
8294;BME280;4185;41.506;24.938;2023-06-14T03:02:15;93295.41;;;14.63;100.00
8294;BME280;4185;41.506;24.938;2023-06-14T03:04:42;93296.22;;;14.58;100.00
8294;BME280;4185;41.506;24.938;2023-06-14T03:07:11;93299.47;;;14.57;100.00
8294;BME280;4185;41.506;24.938;2023-06-14T03:09:39;93298.19;;;14.58;100.00
8294;BME280;4185;41.506;24.938;2023-06-14T03:12:06;93295.75;;;14.54;100.00
8294;BME280;4185;41.506;24.938;2023-06-14T03:14:35;93292.81;;;14.52;100.00
8294;BME280;4185;41.506;24.938;2023-06-14T03:17:02;93292.59;;;14.50;100.00
8294;BME280;4185;41.506;24.938;2023-06-14T03:19:30;93300.78;;;14.50;100.00
8294;BME280;4185;41.506;24.938;2023-06-14T03:21:57;93296.13;;;14.45;100.00
8294;BME280;4185;41.506;24.938;2023-06-14T03:24:25;93300.34;;;14.46;100.00
8294;BME280;4185;41.506;24.938;2023-06-14T03:26:54;93297.31;;;14.50;100.00
8294;BME280;4185;41.506;24.938;2023-06-14T03:29:22;93297.03;;;14.53;100.00
8294;BME280;4185;41.506;24.938;2023-06-14T03:31:59;93301.97;;;14.55;100.00
8294;BME280;4185;41.506;24.938;2023-06-14T03:34:26;93295.31;;;14.50;100.00
8294;BME280;4185;41.506;24.938;2023-06-14T03:36:53;93304.19;;;14.56;100.00
8294;BME280;4185;41.506;24.938;2023-06-14T03:39:20;93312.66;;;14.53;100.00
8294;BME280;4185;41.506;24.938;2023-06-14T03:41:48;93313.66;;;14.55;100.00
8294;BME280;4185;41.506;24.938;2023-06-14T03:44:16;93308.41;;;14.57;100.00
8294;BME280;4185;41.506;24.938;2023-06-14T03:46:44;93308.63;;;14.59;100.00
8294;BME280;4185;41.506;24.938;2023-06-14T03:49:11;93306.84;;;14.62;100.00
8294;BME280;4185;41.506;24.938;2023-06-14T03:51:38;93301.56;;;14.70;100.00
8294;BME280;4185;41.506;24.938;2023-06-14T03:54:05;93299.25;;;14.74;100.00
8294;BME280;4185;41.506;24.938;2023-06-14T03:56:32;93305.97;;;14.73;100.00
8294;BME280;4185;41.506;24.938;2023-06-14T03:59:00;93300.94;;;14.77;100.00
8294;BME280;4185;41.506;24.938;2023-06-14T04:01:27;93306.88;;;14.81;100.00
8294;BME280;4185;41.506;24.938;2023-06-14T04:03:55;93296.59;;;14.87;100.00
8294;BME280;4185;41.506;24.938;2023-06-14T04:06:23;93301.47;;;14.94;100.00
8294;BME280;4185;41.506;24.938;2023-06-14T04:08:50;93300.88;;;15.01;100.00
8294;BME280;4185;41.506;24.938;2023-06-14T04:11:18;93309.06;;;15.01;100.00
8294;BME280;4185;41.506;24.938;2023-06-14T04:13:45;93306.56;;;15.03;100.00
8294;BME280;4185;41.506;24.938;2023-06-14T04:16:14;93305.47;;;15.11;100.00
8294;BME280;4185;41.506;24.938;2023-06-14T04:18:41;93310.84;;;15.17;100.00
8294;BME280;4185;41.506;24.938;2023-06-14T04:21:08;93307.31;;;15.22;100.00
8294;BME280;4185;41.506;24.938;2023-06-14T04:23:34;93313.94;;;15.26;100.00
8294;BME280;4185;41.506;24.938;2023-06-14T04:26:01;93311.72;;;15.25;100.00
8294;BME280;4185;41.506;24.938;2023-06-14T04:28:28;93316.59;;;15.32;100.00
8294;BME280;4185;41.506;24.938;2023-06-14T04:30:55;93325.03;;;15.34;100.00
8294;BME280;4185;41.506;24.938;2023-06-14T04:33:23;93316.00;;;15.39;100.00
8294;BME280;4185;41.506;24.938;2023-06-14T04:35:51;93322.16;;;15.45;100.00
8294;BME280;4185;41.506;24.938;2023-06-14T04:38:19;93317.72;;;15.42;100.00
8294;BME280;4185;41.506;24.938;2023-06-14T04:40:50;93325.63;;;15.45;100.00
8294;BME280;4185;41.506;24.938;2023-06-14T04:43:18;93338.06;;;15.46;100.00
8294;BME280;4185;41.506;24.938;2023-06-14T04:45:53;93330.81;;;15.49;100.00
8294;BME280;4185;41.506;24.938;2023-06-14T04:48:23;93329.47;;;15.55;100.00
8294;BME280;4185;41.506;24.938;2023-06-14T04:50:50;93329.16;;;15.59;100.00
8294;BME280;4185;41.506;24.938;2023-06-14T04:53:20;93335.78;;;15.63;100.00
8294;BME280;4185;41.506;24.938;2023-06-14T04:55:48;93335.50;;;15.67;100.00
8294;BME280;4185;41.506;24.938;2023-06-14T04:58:15;93335.94;;;15.71;100.00
8294;BME280;4185;41.506;24.938;2023-06-14T05:00:42;93338.88;;;15.73;100.00
8294;BME280;4185;41.506;24.938;2023-06-14T05:03:09;93333.09;;;15.76;100.00
8294;BME280;4185;41.506;24.938;2023-06-14T05:05:40;93333.53;;;15.80;100.00
8294;BME280;4185;41.506;24.938;2023-06-14T05:08:07;93345.66;;;15.85;100.00
8294;BME280;4185;41.506;24.938;2023-06-14T05:10:34;93340.63;;;15.89;100.00
8294;BME280;4185;41.506;24.938;2023-06-14T05:13:02;93339.56;;;15.92;100.00
8294;BME280;4185;41.506;24.938;2023-06-14T05:15:28;93350.97;;;15.96;100.00
8294;BME280;4185;41.506;24.938;2023-06-14T05:17:55;93355.09;;;16.03;100.00
8294;BME280;4185;41.506;24.938;2023-06-14T05:20:22;93349.94;;;16.12;100.00
8294;BME280;4185;41.506;24.938;2023-06-14T05:22:52;93349.31;;;16.19;100.00
8294;BME280;4185;41.506;24.938;2023-06-14T05:25:19;93353.72;;;16.22;100.00
8294;BME280;4185;41.506;24.938;2023-06-14T05:27:47;93362.91;;;16.25;100.00
8294;BME280;4185;41.506;24.938;2023-06-14T05:30:15;93365.34;;;16.28;100.00
8294;BME280;4185;41.506;24.938;2023-06-14T05:32:42;93365.97;;;16.34;100.00
8294;BME280;4185;41.506;24.938;2023-06-14T05:35:09;93369.91;;;16.39;100.00
8294;BME280;4185;41.506;24.938;2023-06-14T05:37:36;93368.25;;;16.49;100.00
8294;BME280;4185;41.506;24.938;2023-06-14T05:40:06;93365.06;;;16.58;100.00
8294;BME280;4185;41.506;24.938;2023-06-14T05:42:34;93368.88;;;16.68;100.00
8294;BME280;4185;41.506;24.938;2023-06-14T05:45:01;93376.38;;;16.80;100.00
8294;BME280;4185;41.506;24.938;2023-06-14T05:47:28;93368.75;;;16.86;100.00
8294;BME280;4185;41.506;24.938;2023-06-14T05:49:54;93375.94;;;16.89;100.00
8294;BME280;4185;41.506;24.938;2023-06-14T05:52:21;93374.75;;;16.98;100.00
8294;BME280;4185;41.506;24.938;2023-06-14T05:54:48;93377.19;;;17.15;99.81
8294;BME280;4185;41.506;24.938;2023-06-14T05:57:16;93380.63;;;17.28;98.38
8294;BME280;4185;41.506;24.938;2023-06-14T05:59:43;93388.94;;;17.36;97.24
8294;BME280;4185;41.506;24.938;2023-06-14T06:02:10;93381.56;;;17.31;97.22
8294;BME280;4185;41.506;24.938;2023-06-14T06:04:37;93383.75;;;17.45;96.90
8294;BME280;4185;41.506;24.938;2023-06-14T06:07:04;93385.00;;;17.57;96.16
8294;BME280;4185;41.506;24.938;2023-06-14T06:09:32;93371.56;;;17.67;95.76
8294;BME280;4185;41.506;24.938;2023-06-14T06:11:59;93378.28;;;17.79;94.94
8294;BME280;4185;41.506;24.938;2023-06-14T06:14:27;93376.53;;;17.89;94.57
8294;BME280;4185;41.506;24.938;2023-06-14T06:16:54;93379.56;;;17.98;93.46
8294;BME280;4185;41.506;24.938;2023-06-14T06:19:20;93374.69;;;18.04;92.95
8294;BME280;4185;41.506;24.938;2023-06-14T06:21:47;93387.81;;;18.19;92.71
8294;BME280;4185;41.506;24.938;2023-06-14T06:24:14;93387.06;;;18.39;91.98
8294;BME280;4185;41.506;24.938;2023-06-14T06:26:41;93387.81;;;18.40;91.34
8294;BME280;4185;41.506;24.938;2023-06-14T06:29:08;93390.78;;;18.42;91.98
8294;BME280;4185;41.506;24.938;2023-06-14T06:31:36;93395.06;;;18.50;90.91
8294;BME280;4185;41.506;24.938;2023-06-14T06:34:03;93383.56;;;18.59;90.68
8294;BME280;4185;41.506;24.938;2023-06-14T06:36:29;93388.78;;;18.70;90.01
8294;BME280;4185;41.506;24.938;2023-06-14T06:38:56;93391.22;;;18.81;90.07
8294;BME280;4185;41.506;24.938;2023-06-14T06:41:23;93380.97;;;18.82;87.85
8294;BME280;4185;41.506;24.938;2023-06-14T06:43:50;93388.34;;;18.94;86.17
8294;BME280;4185;41.506;24.938;2023-06-14T06:46:16;93388.63;;;19.11;82.72
8294;BME280;4185;41.506;24.938;2023-06-14T06:48:46;93385.56;;;19.22;81.56
8294;BME280;4185;41.506;24.938;2023-06-14T06:51:12;93385.28;;;19.33;81.88
8294;BME280;4185;41.506;24.938;2023-06-14T06:53:42;93387.16;;;19.46;82.41
8294;BME280;4185;41.506;24.938;2023-06-14T06:56:09;93381.56;;;19.67;81.17
8294;BME280;4185;41.506;24.938;2023-06-14T06:58:36;93382.09;;;19.73;81.12
8294;BME280;4185;41.506;24.938;2023-06-14T07:01:02;93386.16;;;19.79;81.31
8294;BME280;4185;41.506;24.938;2023-06-14T07:03:29;93386.03;;;19.92;80.77
8294;BME280;4185;41.506;24.938;2023-06-14T07:05:58;93390.25;;;20.01;80.68
8294;BME280;4185;41.506;24.938;2023-06-14T07:08:25;93381.84;;;20.21;81.23
8294;BME280;4185;41.506;24.938;2023-06-14T07:10:52;93377.44;;;20.33;79.63
8294;BME280;4185;41.506;24.938;2023-06-14T07:13:19;93374.31;;;20.29;79.59
8294;BME280;4185;41.506;24.938;2023-06-14T07:15:45;93375.78;;;20.30;79.49
8294;BME280;4185;41.506;24.938;2023-06-14T07:18:12;93377.25;;;20.31;80.53
8294;BME280;4185;41.506;24.938;2023-06-14T07:20:39;93377.25;;;20.39;80.14
8294;BME280;4185;41.506;24.938;2023-06-14T07:23:07;93380.41;;;20.43;78.55
8294;BME280;4185;41.506;24.938;2023-06-14T07:25:34;93377.06;;;20.52;78.25
8294;BME280;4185;41.506;24.938;2023-06-14T07:28:01;93375.94;;;20.70;76.68
8294;BME280;4185;41.506;24.938;2023-06-14T07:30:27;93370.78;;;20.82;75.19
8294;BME280;4185;41.506;24.938;2023-06-14T07:32:55;93379.97;;;20.92;75.75
8294;BME280;4185;41.506;24.938;2023-06-14T07:35:22;93375.00;;;20.98;76.50
8294;BME280;4185;41.506;24.938;2023-06-14T07:37:49;93364.16;;;21.00;75.49
8294;BME280;4185;41.506;24.938;2023-06-14T07:40:17;93376.09;;;21.02;75.02
8294;BME280;4185;41.506;24.938;2023-06-14T07:42:44;93376.66;;;21.08;75.31
8294;BME280;4185;41.506;24.938;2023-06-14T07:45:13;93372.75;;;21.19;75.55
8294;BME280;4185;41.506;24.938;2023-06-14T07:47:40;93381.38;;;21.30;75.78
8294;BME280;4185;41.506;24.938;2023-06-14T07:50:07;93374.13;;;21.42;75.78
8294;BME280;4185;41.506;24.938;2023-06-14T07:52:34;93372.81;;;21.51;75.47
8294;BME280;4185;41.506;24.938;2023-06-14T07:55:01;93380.16;;;21.56;75.90
8294;BME280;4185;41.506;24.938;2023-06-14T07:57:29;93370.94;;;21.53;73.89
8294;BME280;4185;41.506;24.938;2023-06-14T07:59:56;93386.41;;;21.56;73.85
8294;BME280;4185;41.506;24.938;2023-06-14T08:02:23;93385.53;;;21.46;72.90
8294;BME280;4185;41.506;24.938;2023-06-14T08:04:50;93383.56;;;21.39;71.46
8294;BME280;4185;41.506;24.938;2023-06-14T08:07:17;93390.16;;;21.44;72.44
8294;BME280;4185;41.506;24.938;2023-06-14T08:09:44;93393.44;;;21.50;72.50
8294;BME280;4185;41.506;24.938;2023-06-14T08:12:11;93387.56;;;21.46;69.71
8294;BME280;4185;41.506;24.938;2023-06-14T08:14:41;93403.97;;;21.44;70.53
8294;BME280;4185;41.506;24.938;2023-06-14T08:17:08;93396.44;;;21.44;70.97
8294;BME280;4185;41.506;24.938;2023-06-14T08:19:35;93398.63;;;21.46;72.14
8294;BME280;4185;41.506;24.938;2023-06-14T08:22:02;93401.34;;;21.53;71.44
8294;BME280;4185;41.506;24.938;2023-06-14T08:24:30;93402.66;;;21.52;72.07
8294;BME280;4185;41.506;24.938;2023-06-14T08:26:57;93413.09;;;21.61;73.29
8294;BME280;4185;41.506;24.938;2023-06-14T08:29:26;93411.41;;;21.73;71.54
8294;BME280;4185;41.506;24.938;2023-06-14T08:31:56;93414.16;;;21.73;70.73
8294;BME280;4185;41.506;24.938;2023-06-14T08:34:23;93417.34;;;21.62;70.36
8294;BME280;4185;41.506;24.938;2023-06-14T08:36:50;93416.47;;;21.52;71.11
8294;BME280;4185;41.506;24.938;2023-06-14T08:39:17;93429.00;;;21.53;71.73
8294;BME280;4185;41.506;24.938;2023-06-14T08:41:45;93426.22;;;21.53;72.15
8294;BME280;4185;41.506;24.938;2023-06-14T08:44:13;93424.75;;;21.52;72.60
8294;BME280;4185;41.506;24.938;2023-06-14T08:46:40;93438.59;;;21.52;71.71
8294;BME280;4185;41.506;24.938;2023-06-14T08:49:11;93433.25;;;21.47;72.06
8294;BME280;4185;41.506;24.938;2023-06-14T08:51:38;93425.38;;;21.36;72.50
8294;BME280;4185;41.506;24.938;2023-06-14T08:54:06;93430.00;;;21.18;72.95
8294;BME280;4185;41.506;24.938;2023-06-14T08:56:34;93435.91;;;21.22;73.22
8294;BME280;4185;41.506;24.938;2023-06-14T08:59:04;93438.69;;;21.22;72.55
8294;BME280;4185;41.506;24.938;2023-06-14T09:01:34;93438.69;;;21.15;73.39
8294;BME280;4185;41.506;24.938;2023-06-14T09:04:01;93434.81;;;21.10;74.28
8294;BME280;4185;41.506;24.938;2023-06-14T09:06:32;93443.31;;;21.12;75.20
8294;BME280;4185;41.506;24.938;2023-06-14T09:08:58;93440.69;;;21.14;74.97
8294;BME280;4185;41.506;24.938;2023-06-14T09:11:26;93443.63;;;21.16;75.00
8294;BME280;4185;41.506;24.938;2023-06-14T09:13:53;93437.00;;;21.19;74.53
8294;BME280;4185;41.506;24.938;2023-06-14T09:16:19;93433.16;;;21.22;73.45
8294;BME280;4185;41.506;24.938;2023-06-14T09:18:47;93439.59;;;21.17;73.76
8294;BME280;4185;41.506;24.938;2023-06-14T09:21:15;93435.91;;;21.15;73.25
8294;BME280;4185;41.506;24.938;2023-06-14T09:23:45;93435.53;;;21.18;73.15
8294;BME280;4185;41.506;24.938;2023-06-14T09:26:13;93435.38;;;21.09;72.72
8294;BME280;4185;41.506;24.938;2023-06-14T09:28:44;93439.97;;;21.06;73.34
8294;BME280;4185;41.506;24.938;2023-06-14T09:31:11;93431.16;;;21.00;73.26
8294;BME280;4185;41.506;24.938;2023-06-14T09:33:37;93435.19;;;20.99;73.87
8294;BME280;4185;41.506;24.938;2023-06-14T09:36:09;93434.47;;;21.06;74.36
8294;BME280;4185;41.506;24.938;2023-06-14T09:38:37;93446.44;;;21.01;75.02
8294;BME280;4185;41.506;24.938;2023-06-14T09:41:08;93441.28;;;20.90;76.43
8294;BME280;4185;41.506;24.938;2023-06-14T09:43:36;93433.53;;;20.81;78.48
8294;BME280;4185;41.506;24.938;2023-06-14T09:46:04;93433.16;;;20.62;78.98
8294;BME280;4185;41.506;24.938;2023-06-14T09:48:33;93440.91;;;20.56;80.77
8294;BME280;4185;41.506;24.938;2023-06-14T09:51:00;93450.09;;;20.51;81.15
8294;BME280;4185;41.506;24.938;2023-06-14T09:53:30;93445.84;;;20.50;81.61
8294;BME280;4185;41.506;24.938;2023-06-14T09:55:57;93444.41;;;20.49;81.58
8294;BME280;4185;41.506;24.938;2023-06-14T09:58:26;93442.03;;;20.53;82.33
8294;BME280;4185;41.506;24.938;2023-06-14T10:00:54;93447.16;;;20.49;82.72
8294;BME280;4185;41.506;24.938;2023-06-14T10:03:27;93430.22;;;20.45;83.57
8294;BME280;4185;41.506;24.938;2023-06-14T10:05:55;93438.88;;;20.49;83.98
8294;BME280;4185;41.506;24.938;2023-06-14T10:08:27;93422.31;;;20.49;84.10
8294;BME280;4185;41.506;24.938;2023-06-14T10:10:58;93427.13;;;20.56;84.46
8294;BME280;4185;41.506;24.938;2023-06-14T10:13:28;93423.25;;;20.74;83.86
8294;BME280;4185;41.506;24.938;2023-06-14T10:16:03;93421.59;;;20.71;84.34
8294;BME280;4185;41.506;24.938;2023-06-14T10:18:35;93420.84;;;20.78;84.09
8294;BME280;4185;41.506;24.938;2023-06-14T10:21:11;93421.00;;;20.88;83.48
8294;BME280;4185;41.506;24.938;2023-06-14T10:23:41;93424.50;;;20.96;83.55
8294;BME280;4185;41.506;24.938;2023-06-14T10:26:18;93423.59;;;21.08;82.87
8294;BME280;4185;41.506;24.938;2023-06-14T10:28:55;93425.59;;;21.15;81.13
8294;BME280;4185;41.506;24.938;2023-06-14T10:31:23;93419.69;;;21.26;81.15
8294;BME280;4185;41.506;24.938;2023-06-14T10:34:05;93415.22;;;21.38;80.90
8294;BME280;4185;41.506;24.938;2023-06-14T10:36:32;93418.84;;;21.56;79.80
8294;BME280;4185;41.506;24.938;2023-06-14T10:39:04;93419.19;;;21.67;77.81
8294;BME280;4185;41.506;24.938;2023-06-14T10:41:34;93415.22;;;21.93;77.20
8294;BME280;4185;41.506;24.938;2023-06-14T10:44:40;93412.19;;;22.31;77.07
8294;BME280;4185;41.506;24.938;2023-06-14T10:47:08;93408.44;;;22.43;74.80
8294;BME280;4185;41.506;24.938;2023-06-14T10:49:37;93406.09;;;22.64;73.29
8294;BME280;4185;41.506;24.938;2023-06-14T10:52:08;93400.69;;;22.66;73.57
8294;BME280;4185;41.506;24.938;2023-06-14T10:55:04;93410.22;;;22.56;74.51
8294;BME280;4185;41.506;24.938;2023-06-14T10:57:35;93407.28;;;22.54;73.21
8294;BME280;4185;41.506;24.938;2023-06-14T11:00:05;93408.38;;;22.51;72.93
8294;BME280;4185;41.506;24.938;2023-06-14T11:06:13;93404.53;;;22.46;71.64
8294;BME280;4185;41.506;24.938;2023-06-14T11:09:20;93407.94;;;22.62;71.64
8294;BME280;4185;41.506;24.938;2023-06-14T11:11:51;93396.91;;;22.79;71.09
8294;BME280;4185;41.506;24.938;2023-06-14T11:14:20;93397.09;;;22.81;68.95
8294;BME280;4185;41.506;24.938;2023-06-14T11:16:51;93408.16;;;22.81;67.65
8294;BME280;4185;41.506;24.938;2023-06-14T11:19:18;93403.63;;;22.93;68.82
8294;BME280;4185;41.506;24.938;2023-06-14T11:21:47;93391.75;;;23.00;68.35
8294;BME280;4185;41.506;24.938;2023-06-14T11:24:14;93394.00;;;22.94;67.57
8294;BME280;4185;41.506;24.938;2023-06-14T11:26:41;93395.94;;;22.84;67.41
8294;BME280;4185;41.506;24.938;2023-06-14T11:29:07;93398.06;;;22.76;67.74
8294;BME280;4185;41.506;24.938;2023-06-14T11:31:34;93393.41;;;22.78;68.26
8294;BME280;4185;41.506;24.938;2023-06-14T11:34:02;93401.97;;;22.73;67.96
8294;BME280;4185;41.506;24.938;2023-06-14T11:36:33;93394.63;;;22.68;67.50
8294;BME280;4185;41.506;24.938;2023-06-14T11:39:01;93393.72;;;22.65;66.93
8294;BME280;4185;41.506;24.938;2023-06-14T11:41:36;93386.06;;;22.73;66.89
8294;BME280;4185;41.506;24.938;2023-06-14T11:44:04;93374.19;;;22.80;66.04
8294;BME280;4185;41.506;24.938;2023-06-14T11:46:31;93372.16;;;22.81;66.05
8294;BME280;4185;41.506;24.938;2023-06-14T11:48:58;93382.28;;;22.86;65.48
8294;BME280;4185;41.506;24.938;2023-06-14T11:51:30;93379.38;;;22.76;65.68
8294;BME280;4185;41.506;24.938;2023-06-14T11:53:57;93386.25;;;22.75;65.23
8294;BME280;4185;41.506;24.938;2023-06-14T11:56:24;93383.41;;;22.83;65.19
8294;BME280;4185;41.506;24.938;2023-06-14T11:58:52;93376.38;;;22.82;64.96
8294;BME280;4185;41.506;24.938;2023-06-14T12:01:21;93374.75;;;22.79;64.47
8294;BME280;4185;41.506;24.938;2023-06-14T12:03:49;93377.69;;;22.81;65.13
8294;BME280;4185;41.506;24.938;2023-06-14T12:06:16;93373.31;;;22.78;64.70
8294;BME280;4185;41.506;24.938;2023-06-14T12:08:45;93377.03;;;22.90;65.20
8294;BME280;4185;41.506;24.938;2023-06-14T12:11:14;93369.25;;;22.96;65.03
8294;BME280;4185;41.506;24.938;2023-06-14T12:13:43;93372.34;;;23.00;64.73
8294;BME280;4185;41.506;24.938;2023-06-14T12:16:10;93382.78;;;23.09;64.18
8294;BME280;4185;41.506;24.938;2023-06-14T12:18:38;93378.88;;;23.29;63.94
8294;BME280;4185;41.506;24.938;2023-06-14T12:21:06;93379.09;;;23.58;62.50
8294;BME280;4185;41.506;24.938;2023-06-14T12:23:45;93371.03;;;23.69;61.78
8294;BME280;4185;41.506;24.938;2023-06-14T12:26:13;93374.84;;;23.74;60.75
8294;BME280;4185;41.506;24.938;2023-06-14T12:28:41;93370.50;;;23.80;60.25
8294;BME280;4185;41.506;24.938;2023-06-14T12:31:09;93369.53;;;23.85;58.22
8294;BME280;4185;41.506;24.938;2023-06-14T12:33:35;93368.66;;;24.09;58.35
8294;BME280;4185;41.506;24.938;2023-06-14T12:36:03;93365.75;;;24.44;59.92
8294;BME280;4185;41.506;24.938;2023-06-14T12:38:30;93363.09;;;24.36;59.85
8294;BME280;4185;41.506;24.938;2023-06-14T12:40:58;93360.28;;;24.27;61.19
8294;BME280;4185;41.506;24.938;2023-06-14T12:43:25;93360.50;;;24.48;62.95
8294;BME280;4185;41.506;24.938;2023-06-14T12:45:52;93360.81;;;24.52;61.24
8294;BME280;4185;41.506;24.938;2023-06-14T12:48:19;93367.47;;;24.39;63.48
8294;BME280;4185;41.506;24.938;2023-06-14T12:50:47;93355.75;;;24.31;63.26
8294;BME280;4185;41.506;24.938;2023-06-14T12:53:14;93355.53;;;24.10;63.21
8294;BME280;4185;41.506;24.938;2023-06-14T12:55:41;93345.88;;;23.84;63.44
8294;BME280;4185;41.506;24.938;2023-06-14T12:58:09;93351.75;;;23.71;64.00
8294;BME280;4185;41.506;24.938;2023-06-14T13:00:37;93345.84;;;23.58;63.98
8294;BME280;4185;41.506;24.938;2023-06-14T13:03:04;93357.78;;;23.51;64.80
8294;BME280;4185;41.506;24.938;2023-06-14T13:05:31;93352.47;;;23.45;65.44
8294;BME280;4185;41.506;24.938;2023-06-14T13:07:58;93351.34;;;23.31;65.59
8294;BME280;4185;41.506;24.938;2023-06-14T13:10:25;93351.97;;;23.22;66.18
8294;BME280;4185;41.506;24.938;2023-06-14T13:12:52;93355.56;;;23.15;66.43
8294;BME280;4185;41.506;24.938;2023-06-14T13:15:21;93353.59;;;23.08;67.68
8294;BME280;4185;41.506;24.938;2023-06-14T13:17:47;93349.28;;;22.98;68.51